createdAt,value
2022-11-05T00:00:35.354Z,2.13
2022-11-05T00:05:52.511Z,2.20
2022-11-05T00:10:57.185Z,1.75
2022-11-05T00:16:17.740Z,1.40
2022-11-05T00:21:53.129Z,1.80
2022-11-05T00:26:57.701Z,1.38
2022-11-05T00:32:01.527Z,1.50
2022-11-05T00:37:04.798Z,1.30
2022-11-05T00:42:26.658Z,1.20
2022-11-05T00:47:48.003Z,1.52
2022-11-05T00:52:59.609Z,1.38
2022-11-05T00:58:06.176Z,1.75
2022-11-05T01:03:12.092Z,1.42
2022-11-05T01:08:17.791Z,1.70
2022-11-05T01:13:23.973Z,1.48
2022-11-05T01:18:27.139Z,1.80
2022-11-05T01:23:30.409Z,1.48
2022-11-05T01:28:35.285Z,2.00
2022-11-05T01:33:38.642Z,1.67
2022-11-05T01:38:42.012Z,1.50
2022-11-05T01:43:52.054Z,1.80
2022-11-05T01:49:02.902Z,1.80
2022-11-05T01:54:11.538Z,2.42
2022-11-05T01:59:19.792Z,2.00
2022-11-05T02:04:28.977Z,1.65
2022-11-05T02:09:36.905Z,1.85
2022-11-05T02:14:41.691Z,1.98
2022-11-05T02:20:26.461Z,1.98
2022-11-05T02:25:53.168Z,1.90
2022-11-05T02:31:02.880Z,2.17
2022-11-05T02:36:39.513Z,2.33
2022-11-05T02:41:50.420Z,2.20
2022-11-05T02:46:59.459Z,1.73
2022-11-05T02:52:07.770Z,2.05
2022-11-05T02:57:11.136Z,1.90
2022-11-05T03:02:16.067Z,1.98
2022-11-05T03:07:33.224Z,2.13
2022-11-05T03:12:46.354Z,1.70
2022-11-05T03:18:02.957Z,1.98
2022-11-05T03:23:13.625Z,1.60
2022-11-05T03:28:19.528Z,1.80
2022-11-05T03:33:29.117Z,1.50
2022-11-05T03:38:36.048Z,2.00
2022-11-05T03:43:44.295Z,1.95
2022-11-05T03:48:53.066Z,1.80
2022-11-05T03:53:59.233Z,1.80
2022-11-05T03:59:03.974Z,1.88
2022-11-05T04:04:09.532Z,1.92
2022-11-05T04:09:30.530Z,2.03
2022-11-05T04:14:33.976Z,1.80
2022-11-05T04:19:57.519Z,1.60
2022-11-05T04:25:00.735Z,1.85
2022-11-05T04:30:19.758Z,2.13
2022-11-05T04:35:24.516Z,2.13
2022-11-05T04:40:27.811Z,2.20
2022-11-05T04:45:34.404Z,2.33
2022-11-05T04:50:49.459Z,1.95
2022-11-05T04:55:52.712Z,1.98
2022-11-05T05:00:56.669Z,1.88
2022-11-05T05:06:04.017Z,1.75
2022-11-05T05:11:09.585Z,1.65
2022-11-05T05:16:20.432Z,1.60
2022-11-05T05:21:41.272Z,1.83
2022-11-05T05:26:46.354Z,1.42
2022-11-05T05:31:55.927Z,1.70
2022-11-05T05:37:23.241Z,2.25
2022-11-05T05:42:28.362Z,1.98
2022-11-05T05:47:33.367Z,2.10
2022-11-05T05:52:41.427Z,2.38
2022-11-05T05:57:44.703Z,2.00
2022-11-05T06:02:48.145Z,2.42
2022-11-05T06:07:58.254Z,2.38
2022-11-05T06:13:01.615Z,2.20
2022-11-05T06:18:04.959Z,2.30
2022-11-05T06:23:09.953Z,2.20
2022-11-05T06:28:13.356Z,1.92
2022-11-05T06:33:16.888Z,1.73
2022-11-05T06:38:21.563Z,1.25
2022-11-05T06:43:24.850Z,1.10
2022-11-05T06:48:28.761Z,0.90
2022-11-05T06:53:33.435Z,0.40
2022-11-05T06:58:37.383Z,0.50
2022-11-05T07:03:40.891Z,0.35
2022-11-05T07:08:45.576Z,0.68
2022-11-05T07:13:48.979Z,0.40
2022-11-05T07:18:53.072Z,0.50
2022-11-05T07:23:57.740Z,0.50
2022-11-05T07:29:00.992Z,0.40
2022-11-05T07:34:04.948Z,0.40
2022-11-05T07:39:09.986Z,0.57
2022-11-05T07:44:14.607Z,0.52
2022-11-05T07:49:18.071Z,0.82
2022-11-05T07:54:26.520Z,0.60
2022-11-05T07:59:29.888Z,0.70
2022-11-05T08:04:33.287Z,0.55
2022-11-05T08:09:37.893Z,0.80
2022-11-05T08:14:41.145Z,0.70
2022-11-05T08:19:44.613Z,0.80
2022-11-05T08:24:49.522Z,0.70
2022-11-05T08:29:52.836Z,0.82
2022-11-05T08:34:56.047Z,1.15
2022-11-05T08:40:01.129Z,0.98
2022-11-05T08:45:04.539Z,0.85
2022-11-05T08:50:08.566Z,1.20
2022-11-05T08:55:13.837Z,1.20
2022-11-05T09:00:17.615Z,1.25
2022-11-05T09:05:22.686Z,1.13
2022-11-05T09:10:28.441Z,1.52
2022-11-05T09:15:35.592Z,3.63
2022-11-05T09:20:40.154Z,2.20
2022-11-05T09:25:45.109Z,3.13
2022-11-05T09:30:49.737Z,1.95
2022-11-05T09:35:54.242Z,2.08
2022-11-05T09:41:02.617Z,1.77
2022-11-05T09:46:14.622Z,1.80
2022-11-05T09:51:23.438Z,1.50
2022-11-05T09:56:32.234Z,1.20
2022-11-05T10:01:38.055Z,1.27
2022-11-05T10:06:48.074Z,1.30
2022-11-05T10:11:57.019Z,1.50
2022-11-05T10:17:05.503Z,1.42
2022-11-05T10:22:13.342Z,1.40
2022-11-05T10:27:21.519Z,1.50
2022-11-05T10:32:30.744Z,1.20
2022-11-05T10:37:39.587Z,1.23
2022-11-05T10:42:57.986Z,1.23
2022-11-05T10:48:16.641Z,1.00
2022-11-05T10:53:24.315Z,1.20
2022-11-05T10:58:31.067Z,1.30
2022-11-05T11:03:42.795Z,1.10
2022-11-05T11:08:48.244Z,1.30
2022-11-05T11:14:00.122Z,1.00
2022-11-05T11:19:04.440Z,1.20
2022-11-05T11:24:23.281Z,1.10
2022-11-05T11:29:29.755Z,1.45
2022-11-05T11:34:35.800Z,1.80
2022-11-05T11:39:40.269Z,1.80
2022-11-05T11:44:50.478Z,1.67
2022-11-05T11:49:56.621Z,2.03
2022-11-05T11:55:20.101Z,1.88
2022-11-05T12:00:27.020Z,1.58
2022-11-05T12:05:47.116Z,1.85
2022-11-05T12:10:58.981Z,1.90
2022-11-05T12:16:13.295Z,1.75
2022-11-05T12:21:34.819Z,1.52
2022-11-05T12:26:55.967Z,1.40
2022-11-05T12:32:23.632Z,1.42
2022-11-05T12:37:31.972Z,1.58
2022-11-05T12:42:53.090Z,1.58
2022-11-05T12:48:11.504Z,1.95
2022-11-05T12:53:28.641Z,2.20
2022-11-05T12:58:38.320Z,2.03
2022-11-05T13:03:47.326Z,2.50
2022-11-05T13:08:59.334Z,2.72
2022-11-05T13:14:09.203Z,2.17
2022-11-05T13:19:18.771Z,2.20
2022-11-05T13:24:25.736Z,2.15
2022-11-05T13:29:35.438Z,2.50
2022-11-05T13:34:40.218Z,2.75
2022-11-05T13:39:48.147Z,2.83
2022-11-05T13:45:28.389Z,3.10
2022-11-05T13:50:48.232Z,2.58
2022-11-05T14:01:55.254Z,2.72
2022-11-05T14:07:11.778Z,2.67
2022-11-05T14:12:23.874Z,3.70
2022-11-05T14:17:34.887Z,3.20
2022-11-05T14:22:42.742Z,3.13
2022-11-05T14:27:48.196Z,3.78
2022-11-05T14:32:53.307Z,2.95
2022-11-05T14:37:59.992Z,2.83
2022-11-05T14:43:05.555Z,3.63
2022-11-05T14:48:28.804Z,3.40
2022-11-05T14:53:36.913Z,3.45
2022-11-05T14:58:41.092Z,2.55
2022-11-05T15:04:07.129Z,2.75
2022-11-05T15:09:32.688Z,3.05
2022-11-05T15:14:42.360Z,2.97
2022-11-05T15:19:46.998Z,3.45
2022-11-05T15:24:53.160Z,3.08
2022-11-05T15:29:56.520Z,3.70
2022-11-05T15:35:00.376Z,4.07
2022-11-05T15:40:24.445Z,4.00
2022-11-05T15:45:27.704Z,4.18
2022-11-05T15:50:34.468Z,3.83
2022-11-05T15:55:51.351Z,4.35
2022-11-05T16:00:54.692Z,3.33
2022-11-05T16:05:58.668Z,3.45
2022-11-05T16:11:04.085Z,4.07
2022-11-05T16:16:24.284Z,4.65
2022-11-05T16:21:31.391Z,4.00
2022-11-05T16:27:01.904Z,5.00
2022-11-05T16:32:03.421Z,5.43
2022-11-05T16:37:09.025Z,5.30
2022-11-05T16:42:44.018Z,5.05
2022-11-05T16:47:47.710Z,5.13
2022-11-05T16:52:51.235Z,5.53
2022-11-05T16:57:56.940Z,4.90
2022-11-05T17:03:01.523Z,5.25
2022-11-05T17:08:05.117Z,4.57
2022-11-05T17:13:11.343Z,5.22
2022-11-05T17:18:18.523Z,6.20
2022-11-05T17:23:24.544Z,5.60
2022-11-05T17:28:30.617Z,5.85
2022-11-05T17:33:34.554Z,5.90
2022-11-05T17:38:38.191Z,5.30
2022-11-05T17:43:43.593Z,5.95
2022-11-05T17:48:47.566Z,6.10
2022-11-05T17:53:50.850Z,6.15
2022-11-05T17:58:55.875Z,6.75
2022-11-05T18:04:07.149Z,5.68
2022-11-05T18:09:12.418Z,5.70
2022-11-05T18:14:22.787Z,6.05
2022-11-05T18:19:27.971Z,6.45
2022-11-05T18:24:31.982Z,8.05
2022-11-05T18:29:36.753Z,6.78
2022-11-05T18:34:40.089Z,6.75
2022-11-05T18:39:43.450Z,6.63
2022-11-05T18:44:48.706Z,6.22
2022-11-05T18:55:20.521Z,6.47
2022-11-05T19:00:25.446Z,5.72
2022-11-05T19:05:29.945Z,5.60
2022-11-05T19:10:33.614Z,6.67
2022-11-05T19:15:38.211Z,6.50
2022-11-05T19:20:41.556Z,6.00
2022-11-05T19:25:44.768Z,5.28
2022-11-05T19:30:49.373Z,5.47
2022-11-05T19:35:52.701Z,5.80
2022-11-05T19:40:55.910Z,6.53
2022-11-05T19:46:00.490Z,8.27
2022-11-05T19:51:09.354Z,6.97
2022-11-05T19:56:14.424Z,7.70
2022-11-05T20:06:48.610Z,7.07
2022-11-05T20:11:53.879Z,6.90
2022-11-05T20:16:58.509Z,6.90
2022-11-05T20:22:01.919Z,6.45
2022-11-05T20:27:05.312Z,7.73
2022-11-05T20:32:12.398Z,11.27
2022-11-05T20:37:15.751Z,8.82
2022-11-05T20:42:19.020Z,8.63
2022-11-05T20:47:23.817Z,7.43
2022-11-05T20:52:27.479Z,7.87
2022-11-05T20:57:30.979Z,7.77
2022-11-05T21:02:36.107Z,6.97
2022-11-05T21:07:39.490Z,5.23
2022-11-05T21:12:42.967Z,5.77
2022-11-05T21:17:47.560Z,4.07
2022-11-05T21:22:50.865Z,5.20
2022-11-05T21:27:54.184Z,4.90
2022-11-05T21:32:58.887Z,5.40
2022-11-05T21:38:02.358Z,5.40
2022-11-05T21:43:05.591Z,4.97
2022-11-05T21:48:10.750Z,5.40
2022-11-05T21:53:32.904Z,7.57
2022-11-05T21:58:53.784Z,7.37
2022-11-05T22:04:02.833Z,8.30
2022-11-05T22:09:06.958Z,7.23
2022-11-05T22:14:10.164Z,6.20
2022-11-05T22:19:14.915Z,6.53
2022-11-05T22:24:18.287Z,7.13
2022-11-05T22:29:21.621Z,5.17
2022-11-05T22:34:26.918Z,5.47
2022-11-05T22:39:30.227Z,5.97
2022-11-05T22:44:33.597Z,5.80
2022-11-05T22:49:38.409Z,6.03
2022-11-05T22:54:41.667Z,5.67
2022-11-05T22:59:44.912Z,4.83
2022-11-05T23:04:50.059Z,5.20
2022-11-05T23:10:10.737Z,6.77
2022-11-05T23:15:34.555Z,6.33
2022-11-05T23:20:56.914Z,6.77
2022-11-05T23:26:21.771Z,6.30
2022-11-05T23:31:42.171Z,5.73
2022-11-05T23:37:03.975Z,7.57
2022-11-05T23:42:24.761Z,6.73
2022-11-05T23:47:45.562Z,6.17
2022-11-05T23:52:50.415Z,7.50
2022-11-05T23:57:53.741Z,6.37
